Time;durP1;ratioP1;P1;durP2;ratioP2;P2;SDS_P1;SDS_P2;PMS_P1;PMS_P2;Temp;Humidity;BMP_temperature;BMP_pressure;BME280_temperature;BME280_humidity;BME280_pressure;Samples;Min_cycle;Max_cycle;Signal;HPM_P1;HPM_P2
2024/01/01 00:00:19;;;;;;;7.93;4.40;;;;;;;7.40;76.92;99361.34;4971183;28;20271;-77
2024/01/01 00:02:45;;;;;;;9.97;4.13;;;;;;;7.44;76.67;99360.19;4971411;28;20576;-78
2024/01/01 00:05:12;;;;;;;5.37;3.37;;;;;;;7.45;76.66;99365.38;4973208;28;20262;-77
2024/01/01 00:07:38;;;;;;;4.20;2.73;;;;;;;7.42;77.12;99357.63;4972844;28;20212;-78
2024/01/01 00:10:06;;;;;;;5.33;2.80;;;;;;;7.45;77.82;99360.06;4970313;28;20208;-78
2024/01/01 00:12:33;;;;;;;7.07;3.23;;;;;;;7.47;77.06;99359.97;4971080;28;20303;-77
2024/01/01 00:15:00;;;;;;;9.93;2.90;;;;;;;7.46;76.90;99356.47;4969013;28;20235;-77
2024/01/01 00:17:27;;;;;;;6.03;2.77;;;;;;;7.46;77.37;99351.16;4971164;28;20209;-76
2024/01/01 00:19:54;;;;;;;6.37;3.00;;;;;;;7.52;77.08;99345.44;4973123;28;20208;-77
2024/01/01 00:22:21;;;;;;;6.13;3.53;;;;;;;7.52;76.97;99344.59;4961901;28;20780;-76
2024/01/01 00:24:47;;;;;;;5.70;3.10;;;;;;;7.51;76.99;99350.84;4972874;28;20254;-78
2024/01/01 00:27:14;;;;;;;6.30;2.73;;;;;;;7.46;77.26;99345.03;4970118;28;20295;-78
2024/01/01 00:29:40;;;;;;;4.60;3.17;;;;;;;7.47;77.39;99352.03;4965156;28;20661;-78
2024/01/01 00:32:07;;;;;;;8.03;3.50;;;;;;;7.43;78.23;99340.78;4970673;28;20283;-78
2024/01/01 00:34:36;;;;;;;5.27;2.63;;;;;;;7.45;78.19;99348.63;4971831;28;20216;-77
2024/01/01 00:37:03;;;;;;;5.17;2.77;;;;;;;7.47;77.54;99346.72;4971292;28;20247;-77
2024/01/01 00:39:29;;;;;;;4.47;2.20;;;;;;;7.46;77.93;99339.72;4973966;28;20275;-78
2024/01/01 00:41:56;;;;;;;5.67;2.17;;;;;;;7.42;78.66;99344.38;4974585;28;20204;-77
2024/01/01 00:44:22;;;;;;;2.50;1.80;;;;;;;7.42;78.82;99348.84;4973028;28;20243;-77
2024/01/01 00:46:49;;;;;;;4.47;2.40;;;;;;;7.44;78.65;99336.34;4961563;28;20216;-78
2024/01/01 00:49:15;;;;;;;7.50;2.50;;;;;;;7.42;78.62;99340.91;4973879;28;20216;-77
2024/01/01 00:51:43;;;;;;;3.33;1.80;;;;;;;7.42;78.31;99331.16;4974027;28;20208;-78
2024/01/01 00:54:11;;;;;;;4.80;2.60;;;;;;;7.41;79.21;99334.75;4970642;28;20200;-78
2024/01/01 00:56:37;;;;;;;4.37;2.30;;;;;;;7.43;78.38;99335.50;4968373;28;20217;-77
2024/01/01 00:59:04;;;;;;;4.07;2.20;;;;;;;7.45;78.78;99346.81;4967676;28;20215;-78
2024/01/01 01:01:30;;;;;;;5.97;2.27;;;;;;;7.50;79.02;99350.00;4972473;28;20219;-77
2024/01/01 01:03:57;;;;;;;5.23;1.57;;;;;;;7.51;78.53;99349.06;4969122;28;20221;-77
2024/01/01 01:06:23;;;;;;;5.17;3.03;;;;;;;7.54;78.89;99350.59;4968994;28;20235;-78
2024/01/01 01:08:51;;;;;;;4.00;1.67;;;;;;;7.56;79.04;99351.34;4973799;28;20207;-77
2024/01/01 01:11:17;;;;;;;4.40;1.70;;;;;;;7.50;78.71;99352.66;4973699;28;20646;-78
2024/01/01 01:13:44;;;;;;;2.33;1.40;;;;;;;7.52;79.02;99356.03;4966856;28;20200;-77
2024/01/01 01:16:10;;;;;;;4.20;1.40;;;;;;;7.59;78.22;99351.13;4969793;28;20227;-76
2024/01/01 01:18:37;;;;;;;3.50;1.53;;;;;;;7.61;78.07;99352.72;4970336;28;20586;-78
2024/01/01 01:21:04;;;;;;;3.60;1.83;;;;;;;7.64;77.80;99351.66;4966771;28;20223;-77
2024/01/01 01:23:30;;;;;;;3.10;1.50;;;;;;;7.66;78.20;99349.75;4972102;28;20207;-77
2024/01/01 01:25:58;;;;;;;4.03;1.90;;;;;;;7.59;78.25;99362.56;4973386;28;20220;-78
2024/01/01 01:28:25;;;;;;;3.63;1.43;;;;;;;7.62;77.89;99354.41;4968814;28;20212;-76
2024/01/01 01:30:51;;;;;;;2.57;1.67;;;;;;;7.56;78.12;99357.50;4964897;28;20217;-76
2024/01/01 01:33:18;;;;;;;4.30;1.87;;;;;;;7.57;78.41;99366.28;4966927;28;20209;-78
2024/01/01 01:35:44;;;;;;;6.00;2.03;;;;;;;7.57;78.81;99364.50;4967767;28;20227;-78
2024/01/01 01:38:11;;;;;;;2.87;1.53;;;;;;;7.56;78.93;99368.09;4972327;28;20211;-78
2024/01/01 01:40:37;;;;;;;5.53;2.00;;;;;;;7.52;79.41;99369.28;4971558;28;20208;-78
2024/01/01 01:43:20;;;;;;;3.23;1.90;;;;;;;7.55;79.25;99369.03;4971294;28;20208;-78
2024/01/01 01:45:47;;;;;;;5.33;1.70;;;;;;;7.58;78.97;99376.78;4968235;28;20239;-78
2024/01/01 01:48:13;;;;;;;4.23;2.07;;;;;;;7.60;78.33;99371.38;4971542;28;20219;-78
2024/01/01 01:50:40;;;;;;;4.43;2.10;;;;;;;7.63;78.68;99374.66;4972895;28;20212;-78
2024/01/01 01:53:07;;;;;;;6.27;2.43;;;;;;;7.66;78.61;99371.78;4967347;28;20576;-78
2024/01/01 01:55:33;;;;;;;4.57;1.83;;;;;;;7.64;78.66;99372.84;4971651;28;20220;-78
2024/01/01 01:58:00;;;;;;;5.43;2.30;;;;;;;7.61;78.30;99368.63;4971340;28;20213;-78
2024/01/01 02:00:28;;;;;;;5.13;2.33;;;;;;;7.56;79.17;99370.75;4972233;28;20231;-77
2024/01/01 02:02:57;;;;;;;2.73;1.90;;;;;;;7.61;78.49;99371.28;4968166;28;20213;-78
2024/01/01 02:05:23;;;;;;;5.47;2.57;;;;;;;7.61;79.22;99368.63;4967551;28;20243;-78
2024/01/01 02:07:50;;;;;;;5.73;2.23;;;;;;;7.61;78.94;99370.41;4968180;28;20207;-78
2024/01/01 02:10:16;;;;;;;5.17;3.07;;;;;;;7.60;79.29;99371.38;4972303;28;20222;-78
2024/01/01 02:12:45;;;;;;;3.83;1.80;;;;;;;7.65;78.21;99366.59;4964351;28;20208;-78
2024/01/01 02:15:11;;;;;;;3.30;2.03;;;;;;;7.64;78.43;99362.25;4963051;28;20232;-77
2024/01/01 02:17:39;;;;;;;3.80;2.50;;;;;;;7.63;78.49;99369.34;4966658;28;20215;-77
2024/01/01 02:20:07;;;;;;;6.80;2.93;;;;;;;7.69;77.89;99367.22;4965878;28;20207;-77
2024/01/01 02:22:37;;;;;;;4.77;2.60;;;;;;;7.72;78.55;99362.53;4966515;28;20304;-77
2024/01/01 02:25:06;;;;;;;4.47;2.37;;;;;;;7.72;78.20;99367.00;4965710;28;20224;-78
2024/01/01 02:27:33;;;;;;;5.93;2.00;;;;;;;7.71;78.45;99360.00;4966694;28;20212;-77
2024/01/01 02:30:00;;;;;;;4.30;2.43;;;;;;;7.72;77.69;99362.53;4966536;28;20204;-77
2024/01/01 02:32:26;;;;;;;6.03;2.87;;;;;;;7.75;78.30;99361.47;4970113;28;20223;-76
2024/01/01 02:34:53;;;;;;;3.23;1.97;;;;;;;7.75;78.15;99364.13;4959772;28;20220;-78
2024/01/01 02:37:19;;;;;;;5.23;2.17;;;;;;;7.78;77.74;99363.91;4966233;28;20263;-78
2024/01/01 02:39:46;;;;;;;5.17;2.40;;;;;;;7.80;77.29;99354.91;4965418;28;20208;-78
2024/01/01 02:42:14;;;;;;;5.80;2.30;;;;;;;7.79;78.04;99358.50;4969875;28;20217;-77
2024/01/01 02:44:40;;;;;;;7.63;2.33;;;;;;;7.73;78.26;99360.72;4967108;28;20235;-78
2024/01/01 02:47:07;;;;;;;4.53;2.00;;;;;;;7.78;77.46;99369.22;4967849;28;20238;-77
2024/01/01 02:49:34;;;;;;;4.73;2.43;;;;;;;7.75;77.67;99362.31;4961360;28;20212;-78
2024/01/01 02:52:00;;;;;;;5.70;3.00;;;;;;;7.73;78.25;99368.69;4967726;28;20204;-78
2024/01/01 02:54:27;;;;;;;5.23;2.53;;;;;;;7.68;77.77;99370.84;4962885;28;20236;-78
2024/01/01 02:56:53;;;;;;;7.00;2.60;;;;;;;7.65;78.43;99369.25;4965929;28;20242;-78
2024/01/01 02:59:21;;;;;;;5.60;2.93;;;;;;;7.63;77.86;99361.41;4966085;28;20610;-78
2024/01/01 03:01:47;;;;;;;4.70;2.53;;;;;;;7.61;78.79;99371.28;4966319;28;20216;-77
2024/01/01 03:04:14;;;;;;;5.83;3.13;;;;;;;7.60;78.51;99372.22;4969638;28;20231;-77
2024/01/01 03:06:40;;;;;;;6.03;2.70;;;;;;;7.57;78.06;99369.78;4963941;28;20200;-77
2024/01/01 03:09:07;;;;;;;5.97;3.00;;;;;;;7.54;78.25;99362.06;4968338;28;20246;-78
2024/01/01 03:11:34;;;;;;;4.10;2.70;;;;;;;7.51;78.43;99372.91;4970427;28;20211;-77
2024/01/01 03:14:00;;;;;;;5.27;2.73;;;;;;;7.48;78.47;99381.06;4965619;28;20196;-78
2024/01/01 03:16:28;;;;;;;5.87;3.03;;;;;;;7.50;78.85;99371.19;4970727;28;20232;-78
2024/01/01 03:18:55;;;;;;;6.57;2.73;;;;;;;7.49;79.41;99364.19;4965576;28;20209;-77
2024/01/01 03:21:21;;;;;;;4.90;3.00;;;;;;;7.51;79.13;99372.91;4965703;28;20211;-78
2024/01/01 03:23:48;;;;;;;6.43;3.10;;;;;;;7.51;78.93;99370.25;4967057;28;20287;-77
2024/01/01 03:26:14;;;;;;;10.00;3.87;;;;;;;7.54;79.04;99369.16;4966349;28;20626;-77
2024/01/01 03:28:41;;;;;;;7.97;3.93;;;;;;;7.49;79.78;99371.31;4967034;28;20219;-77
2024/01/01 03:31:07;;;;;;;9.37;3.40;;;;;;;7.47;79.54;99374.06;4964819;28;20204;-77
2024/01/01 03:33:35;;;;;;;7.43;3.83;;;;;;;7.49;80.19;99372.16;4965448;28;20215;-77
2024/01/01 03:36:02;;;;;;;6.87;3.40;;;;;;;7.48;79.35;99386.34;4966020;28;20231;-78
2024/01/01 03:38:29;;;;;;;7.20;3.93;;;;;;;7.45;80.03;99377.78;4968438;28;20832;-78
2024/01/01 03:40:55;;;;;;;7.57;3.70;;;;;;;7.46;79.30;99379.47;4971275;28;20204;-78
2024/01/01 03:43:21;;;;;;;7.17;3.10;;;;;;;7.45;80.32;99381.25;4973929;28;20215;-77
2024/01/01 03:45:48;;;;;;;5.13;3.20;;;;;;;7.42;79.77;99375.31;4970399;28;20239;-76
2024/01/01 03:48:14;;;;;;;5.60;3.27;;;;;;;7.39;80.63;99376.38;4966183;28;20215;-77
2024/01/01 03:50:42;;;;;;;4.67;3.40;;;;;;;7.40;80.37;99366.63;4967270;28;20208;-77
2024/01/01 03:53:09;;;;;;;7.57;3.57;;;;;;;7.36;80.45;99366.00;4968272;28;20628;-76
2024/01/01 03:55:35;;;;;;;6.13;3.20;;;;;;;7.35;80.41;99364.31;4978631;28;20234;-77
2024/01/01 03:58:02;;;;;;;7.57;3.70;;;;;;;7.37;80.79;99356.25;4969764;28;20216;-77
2024/01/01 04:00:29;;;;;;;4.27;3.17;;;;;;;7.38;80.51;99363.25;4964111;28;20311;-78
2024/01/01 04:02:55;;;;;;;5.57;2.70;;;;;;;7.37;81.18;99367.69;4973416;28;20201;-78
2024/01/01 04:05:22;;;;;;;10.50;4.73;;;;;;;7.38;80.17;99358.81;4971300;28;20236;-79
2024/01/01 04:07:51;;;;;;;4.83;3.43;;;;;;;7.36;80.51;99352.75;4971687;28;20594;-78
2024/01/01 04:10:17;;;;;;;6.13;3.30;;;;;;;7.35;81.02;99359.00;4969647;28;20583;-77
2024/01/01 04:12:44;;;;;;;6.67;3.43;;;;;;;7.38;80.75;99356.16;4966687;28;20204;-77
2024/01/01 04:15:10;;;;;;;4.90;2.77;;;;;;;7.38;80.43;99358.81;4972425;28;20224;-78
2024/01/01 04:17:37;;;;;;;6.33;3.13;;;;;;;7.35;79.68;99359.00;4976157;28;20664;-78
2024/01/01 04:20:10;;;;;;;5.50;3.17;;;;;;;7.29;79.85;99359.47;4976582;28;20723;-77
2024/01/01 04:22:36;;;;;;;4.60;2.70;;;;;;;7.26;80.96;99354.38;4977060;28;20202;-77
2024/01/01 04:25:05;;;;;;;6.53;3.30;;;;;;;7.26;79.48;99352.56;4978237;28;20238;-78
2024/01/01 04:27:31;;;;;;;6.27;4.20;;;;;;;7.26;80.12;99349.06;4972549;28;20575;-80
2024/01/01 04:29:58;;;;;;;4.43;2.93;;;;;;;7.21;80.20;99346.75;4973117;28;20243;-78
2024/01/01 04:32:24;;;;;;;6.00;2.93;;;;;;;7.19;80.14;99335.41;4975301;28;20239;-78
2024/01/01 04:34:51;;;;;;;7.00;3.10;;;;;;;7.12;79.96;99341.25;4970628;28;20228;-78
2024/01/01 04:37:17;;;;;;;7.43;3.43;;;;;;;7.12;80.68;99335.97;4974042;28;20216;-78
2024/01/01 04:39:44;;;;;;;6.13;3.40;;;;;;;7.10;80.16;99332.56;4967173;28;20212;-77
2024/01/01 04:42:12;;;;;;;7.20;3.60;;;;;;;7.11;79.98;99334.28;4960556;28;20217;-78
2024/01/01 04:44:38;;;;;;;4.33;2.77;;;;;;;7.14;80.12;99328.78;4967133;28;20228;-78
2024/01/01 04:47:05;;;;;;;6.77;3.67;;;;;;;7.12;80.42;99326.22;4971712;28;20583;-77
2024/01/01 04:49:31;;;;;;;7.53;3.67;;;;;;;7.14;79.78;99336.72;4969867;28;20692;-78
2024/01/01 04:51:57;;;;;;;9.33;4.47;;;;;;;7.08;81.07;99332.69;4969746;28;20560;-78
2024/01/01 04:54:24;;;;;;;7.03;4.30;;;;;;;7.07;80.33;99338.09;4965816;28;20555;-78
2024/01/01 04:56:51;;;;;;;7.43;3.40;;;;;;;7.09;81.02;99337.03;4970492;28;20247;-78
2024/01/01 04:59:18;;;;;;;9.73;4.23;;;;;;;7.05;81.02;99335.53;4973217;28;20216;-78
2024/01/01 05:01:45;;;;;;;9.90;5.17;;;;;;;7.06;82.14;99334.59;4968237;28;20204;-78
2024/01/01 05:04:11;;;;;;;7.57;4.13;;;;;;;7.09;81.67;99330.88;4972258;28;20216;-78
2024/01/01 05:06:38;;;;;;;8.23;3.97;;;;;;;7.11;81.71;99321.88;4970994;28;20235;-78
2024/01/01 05:09:06;;;;;;;7.57;3.67;;;;;;;7.09;82.00;99337.03;4973055;28;20204;-78
2024/01/01 05:11:33;;;;;;;6.00;3.57;;;;;;;7.08;81.73;99334.47;4966030;28;20708;-78
2024/01/01 05:14:00;;;;;;;8.30;4.10;;;;;;;7.08;81.88;99342.44;4974096;28;20208;-77
2024/01/01 05:16:27;;;;;;;6.87;3.80;;;;;;;7.09;81.51;99341.47;4973302;28;20228;-77
2024/01/01 05:18:54;;;;;;;8.00;4.23;;;;;;;7.14;81.00;99334.91;4971995;28;20924;-77
2024/01/01 05:21:20;;;;;;;9.37;4.60;;;;;;;7.15;81.23;99338.41;4969477;28;20240;-78
2024/01/01 05:23:47;;;;;;;7.73;4.10;;;;;;;7.13;81.51;99335.88;4968381;28;20701;-78
2024/01/01 05:26:13;;;;;;;6.77;3.77;;;;;;;7.18;81.59;99340.81;4972095;28;20259;-77
2024/01/01 05:28:40;;;;;;;9.13;4.37;;;;;;;7.22;80.83;99332.56;4969964;28;20580;-78
2024/01/01 05:31:06;;;;;;;8.57;4.30;;;;;;;7.22;80.62;99329.06;4966470;28;20231;-77
2024/01/01 05:33:34;;;;;;;7.17;4.93;;;;;;;7.25;80.40;99342.94;4974537;28;20204;-78
2024/01/01 05:36:00;;;;;;;10.73;4.60;;;;;;;7.26;79.98;99344.63;4970460;28;20224;-79
2024/01/01 05:38:27;;;;;;;5.17;3.40;;;;;;;7.28;80.31;99340.06;4961323;28;20212;-78
2024/01/01 05:40:53;;;;;;;6.43;3.83;;;;;;;7.27;80.81;99341.03;4963340;28;20715;-78
2024/01/01 05:43:21;;;;;;;9.80;4.17;;;;;;;7.26;80.65;99346.44;4970939;28;20608;-78
2024/01/01 05:45:47;;;;;;;6.10;3.63;;;;;;;7.29;80.44;99348.88;4968853;28;20290;-78
2024/01/01 05:48:15;;;;;;;7.33;3.33;;;;;;;7.31;79.75;99358.41;4968252;28;20221;-78
2024/01/01 05:50:43;;;;;;;7.57;3.83;;;;;;;7.30;80.64;99362.00;4968829;28;20756;-78
2024/01/01 05:53:09;;;;;;;7.67;4.07;;;;;;;7.28;81.04;99366.56;4966688;28;20573;-78
2024/01/01 05:55:35;;;;;;;8.70;4.10;;;;;;;7.25;80.97;99376.50;4966440;28;20595;-77
2024/01/01 05:58:02;;;;;;;6.63;4.10;;;;;;;7.24;81.03;99383.59;4965383;28;20209;-78
2024/01/01 06:00:29;;;;;;;9.33;3.47;;;;;;;7.29;83.00;99391.25;4973110;28;20243;-78
2024/01/01 06:02:56;;;;;;;8.33;4.20;;;;;;;7.28;83.94;99392.19;4967540;28;20213;-77
2024/01/01 06:05:22;;;;;;;6.53;4.03;;;;;;;7.31;84.99;99405.22;4971159;28;20650;-77
2024/01/01 06:07:51;;;;;;;10.47;3.90;;;;;;;7.30;85.99;99414.13;4970989;28;20696;-78
2024/01/01 06:10:17;;;;;;;6.60;3.53;;;;;;;7.27;87.04;99406.38;4959986;28;20355;-78
2024/01/01 06:12:44;;;;;;;7.67;3.30;;;;;;;7.27;88.12;99414.34;4971406;28;20208;-79
2024/01/01 06:15:12;;;;;;;5.67;2.83;;;;;;;7.21;88.33;99406.81;4960148;28;20266;-79
2024/01/01 06:17:39;;;;;;;6.63;3.40;;;;;;;7.16;89.57;99411.59;4971648;28;20323;-79
2024/01/01 06:20:06;;;;;;;8.30;4.77;;;;;;;7.13;90.83;99414.44;4972341;28;20200;-78
2024/01/01 06:22:33;;;;;;;8.03;3.87;;;;;;;7.10;91.90;99412.00;4970087;28;20215;-78
2024/01/01 06:25:01;;;;;;;8.90;4.17;;;;;;;7.08;91.46;99404.16;4970398;28;20232;-79
2024/01/01 06:27:27;;;;;;;10.10;3.50;;;;;;;7.07;92.12;99399.81;4973679;28;20220;-78
2024/01/01 06:29:54;;;;;;;6.97;3.70;;;;;;;7.01;92.92;99402.88;4974308;28;20219;-78
2024/01/01 06:32:20;;;;;;;7.57;3.33;;;;;;;6.96;93.31;99399.72;4973181;28;20208;-78
2024/01/01 06:34:47;;;;;;;5.50;2.70;;;;;;;6.89;92.82;99404.56;4976024;28;20229;-78
2024/01/01 06:37:13;;;;;;;5.27;2.70;;;;;;;6.89;93.22;99406.38;4970629;28;20217;-79
2024/01/01 06:39:40;;;;;;;9.30;3.20;;;;;;;6.84;93.53;99411.97;4976388;28;20666;-78
2024/01/01 06:42:08;;;;;;;5.43;2.47;;;;;;;6.90;92.83;99408.06;4970446;28;20228;-78
2024/01/01 06:44:34;;;;;;;6.53;2.77;;;;;;;6.86;93.21;99406.56;4972566;28;20231;-78
2024/01/01 06:47:03;;;;;;;5.20;2.70;;;;;;;6.86;94.27;99411.88;4975720;28;20239;-77
2024/01/01 06:49:29;;;;;;;9.57;3.50;;;;;;;6.87;93.87;99416.22;4980818;28;20207;-77
2024/01/01 06:51:56;;;;;;;4.13;2.60;;;;;;;6.87;93.83;99411.75;4965783;28;20217;-80
2024/01/01 06:54:22;;;;;;;5.90;2.60;;;;;;;6.86;93.59;99420.66;4966214;28;20584;-80
2024/01/01 06:56:49;;;;;;;7.70;2.50;;;;;;;6.83;94.49;99420.84;4969517;28;20242;-78
2024/01/01 06:59:17;;;;;;;5.37;2.27;;;;;;;6.80;94.72;99415.78;4972146;28;20243;-76
2024/01/01 07:01:46;;;;;;;2.63;1.37;;;;;;;6.80;94.29;99421.09;4969859;28;20209;-79
2024/01/01 07:04:14;;;;;;;7.93;1.73;;;;;;;6.77;93.84;99426.59;4967150;28;20231;-77
2024/01/01 07:06:40;;;;;;;5.37;1.90;;;;;;;6.75;94.58;99425.84;4968374;28;20635;-78
2024/01/01 07:09:08;;;;;;;4.60;2.03;;;;;;;6.72;95.18;99428.69;4967741;28;20209;-79
2024/01/01 07:11:34;;;;;;;6.07;2.03;;;;;;;6.72;94.52;99433.97;4972212;28;20204;-76
2024/01/01 07:14:00;;;;;;;8.63;1.90;;;;;;;6.68;94.30;99443.06;4961669;28;20209;-78
2024/01/01 07:16:28;;;;;;;5.03;2.43;;;;;;;6.63;95.02;99438.06;4975267;28;20224;-78
2024/01/01 07:18:55;;;;;;;4.53;1.90;;;;;;;6.67;94.95;99445.81;4963184;28;20216;-80
2024/01/01 07:21:21;;;;;;;5.33;1.93;;;;;;;6.66;95.36;99450.25;4978365;28;20208;-80
2024/01/01 07:23:48;;;;;;;4.10;2.70;;;;;;;6.65;96.01;99451.19;4967780;28;20904;-80
2024/01/01 07:26:15;;;;;;;8.23;2.30;;;;;;;6.64;96.56;99460.06;4975712;28;20693;-78
2024/01/01 07:28:42;;;;;;;5.93;1.43;;;;;;;6.63;96.77;99455.72;4974324;28;20208;-81
2024/01/01 07:31:09;;;;;;;5.97;1.90;;;;;;;6.62;97.50;99451.41;4969176;28;20263;-80
2024/01/01 07:33:37;;;;;;;10.30;2.27;;;;;;;6.60;97.50;99450.66;4968888;28;20302;-79
2024/01/01 07:36:11;;;;;;;2.67;1.27;;;;;;;6.66;96.91;99455.53;4962233;28;20224;-81
2024/01/01 07:38:39;;;;;;;3.47;1.73;;;;;;;6.66;97.80;99452.88;4975559;28;20223;-78
2024/01/01 07:41:05;;;;;;;3.83;1.60;;;;;;;6.64;97.44;99460.06;4980460;28;20212;-80
2024/01/01 07:43:32;;;;;;;3.77;1.50;;;;;;;6.67;97.87;99459.03;4969617;28;20211;-81
2024/01/01 07:45:58;;;;;;;6.77;1.80;;;;;;;6.65;97.99;99463.56;4975560;28;20314;-81
2024/01/01 07:48:25;;;;;;;2.87;1.60;;;;;;;6.62;98.37;99464.66;4976873;28;20212;-81
2024/01/01 07:50:53;;;;;;;5.53;1.90;;;;;;;6.64;98.16;99470.66;4981249;28;20224;-81
2024/01/01 07:53:19;;;;;;;6.07;2.00;;;;;;;6.60;98.72;99471.84;4977241;28;20218;-80
2024/01/01 07:55:46;;;;;;;3.97;1.50;;;;;;;6.67;99.23;99467.81;4976922;28;20239;-81
2024/01/01 07:58:12;;;;;;;4.70;1.40;;;;;;;6.66;99.06;99483.78;4977289;28;20216;-80
2024/01/01 08:00:39;;;;;;;6.00;1.80;;;;;;;6.63;99.39;99472.44;4977616;28;20569;-81
2024/01/01 08:03:05;;;;;;;5.57;1.80;;;;;;;6.63;100.00;99483.03;4984065;28;20303;-81
2024/01/01 08:05:32;;;;;;;5.80;2.17;;;;;;;6.63;100.00;99476.91;4977012;28;20239;-81
2024/01/01 08:08:00;;;;;;;5.20;2.30;;;;;;;6.65;100.00;99482.94;4967771;28;20220;-81
2024/01/01 08:10:26;;;;;;;3.93;1.70;;;;;;;6.67;100.00;99477.56;4971673;28;20212;-80
2024/01/01 08:12:53;;;;;;;6.03;1.90;;;;;;;6.65;100.00;99484.72;4976459;28;20215;-81
2024/01/01 08:15:19;;;;;;;9.10;1.77;;;;;;;6.58;100.00;99484.31;4957398;28;20235;-80
2024/01/01 08:17:46;;;;;;;6.63;2.00;;;;;;;6.61;100.00;99486.75;4957057;28;20665;-81
2024/01/01 08:20:12;;;;;;;4.80;1.80;;;;;;;6.55;100.00;99480.06;4968987;28;20664;-81
2024/01/01 08:22:39;;;;;;;5.10;2.30;;;;;;;6.54;100.00;99488.94;4976718;28;20224;-81
2024/01/01 08:25:07;;;;;;;7.20;2.60;;;;;;;6.60;100.00;99488.56;4976574;28;20232;-81
2024/01/01 08:27:34;;;;;;;5.97;2.07;;;;;;;6.60;100.00;99487.69;4976548;28;20219;-79
2024/01/01 08:30:00;;;;;;;8.73;2.10;;;;;;;6.58;100.00;99473.72;4976372;28;20219;-80
2024/01/01 08:32:27;;;;;;;6.20;1.87;;;;;;;6.60;100.00;99477.13;4969875;28;20215;-81
2024/01/01 08:34:54;;;;;;;5.63;1.63;;;;;;;6.63;100.00;99476.91;4975940;28;20220;-81
2024/01/01 08:37:20;;;;;;;5.70;2.17;;;;;;;6.59;100.00;99478.06;4975843;28;20205;-78
2024/01/01 08:39:47;;;;;;;7.40;2.03;;;;;;;6.60;100.00;99485.06;4967795;28;20209;-79
2024/01/01 08:42:14;;;;;;;6.77;2.53;;;;;;;6.58;100.00;99485.16;4963037;28;20214;-78
2024/01/01 08:44:41;;;;;;;5.77;1.70;;;;;;;6.60;100.00;99493.84;4975786;28;20228;-78
2024/01/01 08:47:07;;;;;;;6.30;2.20;;;;;;;6.60;100.00;99482.41;4976153;28;20239;-81
2024/01/01 08:49:34;;;;;;;7.33;2.40;;;;;;;6.57;100.00;99494.03;4972562;28;20672;-79
2024/01/01 08:52:00;;;;;;;9.47;2.30;;;;;;;6.61;100.00;99497.34;4974830;28;20210;-80
2024/01/01 08:54:27;;;;;;;11.30;1.90;;;;;;;6.63;100.00;99505.19;4973749;28;20215;-78
2024/01/01 08:56:53;;;;;;;6.53;2.03;;;;;;;6.68;100.00;99497.78;4972919;28;20216;-79
2024/01/01 08:59:21;;;;;;;10.63;2.53;;;;;;;6.70;100.00;99496.72;4965479;28;20224;-80
2024/01/01 09:01:48;;;;;;;7.97;1.80;;;;;;;6.71;100.00;99493.13;4974548;28;20220;-79
2024/01/01 09:04:14;;;;;;;8.13;2.57;;;;;;;6.74;100.00;99495.56;4974967;28;20208;-80
2024/01/01 09:06:41;;;;;;;6.00;2.43;;;;;;;6.73;99.89;99508.91;4973640;28;20220;-81
2024/01/01 09:09:08;;;;;;;5.97;2.23;;;;;;;6.73;99.03;99495.69;4966692;28;20212;-79
2024/01/01 09:11:35;;;;;;;6.23;1.40;;;;;;;6.73;99.81;99496.53;4970818;28;20266;-80
2024/01/01 09:14:01;;;;;;;5.67;1.53;;;;;;;6.77;99.26;99500.69;4974147;28;20208;-80
2024/01/01 09:16:31;;;;;;;3.80;1.30;;;;;;;6.82;98.25;99509.13;4970552;28;20589;-80
2024/01/01 09:18:59;;;;;;;5.83;1.50;;;;;;;6.87;98.04;99504.41;4969800;28;20215;-80
2024/01/01 09:21:26;;;;;;;4.73;1.17;;;;;;;6.89;98.27;99505.16;4967267;28;20214;-80
2024/01/01 09:23:57;;;;;;;5.80;1.20;;;;;;;6.91;98.13;99515.63;4973566;28;20425;-80
2024/01/01 09:26:24;;;;;;;7.17;1.77;;;;;;;6.90;98.16;99514.78;4967151;28;20235;-79
2024/01/01 09:28:50;;;;;;;5.63;1.50;;;;;;;6.91;98.45;99518.28;4973617;28;20680;-80
2024/01/01 09:31:17;;;;;;;8.17;1.77;;;;;;;6.93;97.74;99522.53;4973849;28;20620;-80
2024/01/01 09:33:45;;;;;;;4.47;1.43;;;;;;;6.94;97.71;99518.94;4973119;28;20230;-81
2024/01/01 09:36:13;;;;;;;7.37;2.03;;;;;;;6.94;97.27;99521.56;4972527;28;20236;-79
2024/01/01 09:38:39;;;;;;;6.23;1.30;;;;;;;6.99;97.38;99518.59;4972309;28;20213;-80
2024/01/01 09:41:10;;;;;;;6.20;1.73;;;;;;;7.04;96.71;99523.59;4973609;28;20220;-80
2024/01/01 09:43:36;;;;;;;5.60;2.13;;;;;;;7.06;96.14;99532.28;4973774;28;20215;-80
2024/01/01 09:46:03;;;;;;;3.30;1.33;;;;;;;7.06;95.94;99522.56;4973031;28;20236;-80
2024/01/01 09:48:30;;;;;;;4.60;1.57;;;;;;;7.09;95.75;99540.88;4973341;28;20216;-80
2024/01/01 09:50:57;;;;;;;8.30;1.30;;;;;;;7.14;94.58;99532.63;4973040;28;20208;-80
2024/01/01 09:53:24;;;;;;;5.43;1.97;;;;;;;7.12;94.42;99534.53;4972711;28;20220;-79
2024/01/01 09:55:52;;;;;;;6.77;1.67;;;;;;;7.16;93.56;99536.03;4972650;28;20232;-79
2024/01/01 09:58:19;;;;;;;7.97;2.00;;;;;;;7.12;93.54;99532.75;4965119;28;20739;-79
2024/01/01 10:00:45;;;;;;;8.23;2.77;;;;;;;7.11;93.96;99530.19;4972681;28;20255;-80
2024/01/01 10:03:12;;;;;;;3.67;1.07;;;;;;;7.19;92.55;99533.16;4972885;28;20215;-81
2024/01/01 10:05:39;;;;;;;4.63;1.37;;;;;;;7.20;92.33;99534.84;4973164;28;20270;-79
2024/01/01 10:08:10;;;;;;;4.37;1.63;;;;;;;7.20;91.88;99533.06;4964864;28;20279;-80
2024/01/01 10:10:37;;;;;;;6.97;1.60;;;;;;;7.21;91.31;99541.84;4967793;28;20201;-80
2024/01/01 10:13:11;;;;;;;6.13;1.80;;;;;;;7.24;91.96;99536.34;4972618;28;20222;-79
2024/01/01 10:15:39;;;;;;;3.13;1.50;;;;;;;7.26;92.45;99540.59;4972101;28;20228;-79
2024/01/01 10:18:10;;;;;;;4.87;1.30;;;;;;;7.29;91.83;99544.84;4971000;28;20205;-80
2024/01/01 10:20:37;;;;;;;5.17;1.40;;;;;;;7.29;90.78;99551.00;4967371;28;20671;-79
2024/01/01 10:23:27;;;;;;;5.87;1.47;;;;;;;7.31;91.40;99558.84;4964826;28;20205;-80
2024/01/01 10:26:07;;;;;;;5.00;1.10;;;;;;;7.32;90.79;99553.44;4969438;28;20279;-79
2024/01/01 10:28:34;;;;;;;4.30;1.97;;;;;;;7.36;91.24;99561.16;4961802;28;20242;-79
2024/01/01 10:31:02;;;;;;;3.67;1.40;;;;;;;7.32;90.74;99571.13;4982113;28;20211;-81
2024/01/01 10:33:31;;;;;;;5.73;1.80;;;;;;;7.28;91.68;99578.44;4973746;28;20204;-81
2024/01/01 10:36:00;;;;;;;5.87;1.33;;;;;;;7.26;92.51;99590.91;4973195;28;20323;-80
2024/01/01 10:38:29;;;;;;;4.53;2.30;;;;;;;7.24;94.29;99589.31;4966218;28;20215;-80
2024/01/01 10:40:57;;;;;;;6.10;1.67;;;;;;;7.24;95.35;99584.03;4979815;28;20204;-80
2024/01/01 10:43:27;;;;;;;5.20;1.60;;;;;;;7.21;95.86;99579.78;4978957;28;20215;-81
2024/01/01 10:46:00;;;;;;;4.40;1.73;;;;;;;7.21;96.73;99574.47;4972278;28;20247;-80
2024/01/01 10:48:27;;;;;;;4.87;1.10;;;;;;;7.20;95.45;99578.06;4972279;28;20213;-79
2024/01/01 10:51:05;;;;;;;2.03;0.87;;;;;;;7.21;95.58;99590.38;4972367;28;20204;-81
2024/01/01 10:53:51;;;;;;;4.53;1.30;;;;;;;7.19;95.48;99586.13;4971590;28;20263;-80
2024/01/01 10:56:27;;;;;;;4.27;0.83;;;;;;;7.15;95.35;99587.28;4971425;28;20227;-81
2024/01/01 10:59:08;;;;;;;3.63;1.50;;;;;;;7.14;96.03;99591.75;4966593;28;20219;-79
2024/01/01 11:01:37;;;;;;;2.10;0.40;;;;;;;7.14;95.96;99585.59;4972582;28;20196;-79
2024/01/01 11:04:04;;;;;;;4.27;1.27;;;;;;;7.14;94.80;99596.19;4972091;28;20255;-80
2024/01/01 11:06:33;;;;;;;3.57;1.00;;;;;;;7.10;95.12;99584.94;4959946;28;20225;-80
2024/01/01 11:09:30;;;;;;;3.30;0.70;;;;;;;7.12;95.04;99582.19;4969342;28;20295;-81
2024/01/01 11:11:59;;;;;;;2.20;0.87;;;;;;;7.16;94.61;99575.75;4966698;28;20196;-81
2024/01/01 11:14:27;;;;;;;2.20;0.40;;;;;;;7.16;94.41;99575.75;4965410;28;20216;-79
2024/01/01 11:16:55;;;;;;;2.70;1.67;;;;;;;7.13;94.25;99584.75;4971656;28;20287;-81
2024/01/01 11:19:46;;;;;;;2.30;1.20;;;;;;;7.10;94.66;99587.59;4972460;28;20586;-79
2024/01/01 11:22:31;;;;;;;1.77;0.57;;;;;;;7.13;95.08;99589.19;4961859;28;20216;-80
2024/01/01 11:25:00;;;;;;;2.23;0.60;;;;;;;7.14;94.97;99593.53;4970718;28;20308;-79
2024/01/01 11:27:27;;;;;;;2.67;0.53;;;;;;;7.14;93.64;99598.84;4968660;28;20231;-80
2024/01/01 11:29:54;;;;;;;5.07;1.60;;;;;;;7.18;92.65;99595.00;4971498;28;20227;-79
2024/01/01 11:32:22;;;;;;;1.53;0.80;;;;;;;7.14;93.08;99585.59;4962364;28;20208;-80
2024/01/01 11:35:03;;;;;;;5.07;0.80;;;;;;;7.14;92.51;99591.75;4979238;28;20228;-81
2024/01/01 11:37:30;;;;;;;3.50;1.00;;;;;;;7.14;93.16;99590.91;4961212;28;20576;-81
2024/01/01 11:40:02;;;;;;;3.57;0.90;;;;;;;7.18;91.47;99593.22;4971667;28;20204;-81
2024/01/01 11:42:29;;;;;;;4.33;1.10;;;;;;;7.13;92.06;99591.84;4971647;28;20215;-80